Time;durP1;ratioP1;P1;durP2;ratioP2;P2;SDS_P1;SDS_P2;PMS_P1;PMS_P2;Temp;Humidity;BMP_temperature;BMP_pressure;BME280_temperature;BME280_humidity;BME280_pressure;Samples;Min_cycle;Max_cycle;Signal;HPM_P1;HPM_P2
2023/10/12 00:02:21;;;;;;;4.50;1.80;;;;;;;13.80;51.62;99992.13;5095298;28;20219;-86
2023/10/12 00:04:53;;;;;;;6.50;1.43;;;;;;;13.72;51.86;99984.63;5078225;28;20577;-86
2023/10/12 00:07:33;;;;;;;4.10;1.53;;;;;;;13.63;52.05;99992.13;5077489;28;20253;-86
2023/10/12 00:12:44;;;;;;;4.77;1.80;;;;;;;13.58;52.25;99981.81;5095918;28;20574;-86
2023/10/12 00:18:08;;;;;;;4.57;1.67;;;;;;;13.57;51.51;99984.56;5064104;28;20691;-86
2023/10/12 00:20:35;;;;;;;4.30;1.57;;;;;;;13.53;51.28;99978.56;5078199;28;20279;-86
2023/10/12 00:23:13;;;;;;;2.93;1.33;;;;;;;13.51;51.87;99972.53;5076800;28;20187;-86
2023/10/12 00:25:47;;;;;;;9.07;1.77;;;;;;;13.49;51.62;99974.41;5077216;28;20191;-86
2023/10/12 00:28:19;;;;;;;3.57;1.50;;;;;;;13.47;51.52;99968.34;5095075;28;20184;-86
2023/10/12 00:30:47;;;;;;;6.80;1.30;;;;;;;13.42;51.21;99965.09;5095280;28;20171;-86
2023/10/12 00:33:13;;;;;;;3.23;1.57;;;;;;;13.39;51.08;99960.84;5076687;28;20225;-86
2023/10/12 00:35:39;;;;;;;3.67;1.27;;;;;;;13.37;51.21;99956.59;5077191;28;20713;-86
2023/10/12 00:38:23;;;;;;;6.10;2.10;;;;;;;13.33;51.06;99957.69;5094585;28;20215;-86
2023/10/12 00:40:57;;;;;;;6.43;1.17;;;;;;;13.24;51.43;99952.88;5094877;28;20465;-86
2023/10/12 00:43:41;;;;;;;4.50;1.60;;;;;;;13.20;51.53;99948.69;5094984;28;20203;-86
2023/10/12 00:49:40;;;;;;;6.20;1.47;;;;;;;13.15;51.37;99950.72;5095048;28;20600;-86
2023/10/12 00:51:37;;;;;;;4.73;1.53;;;;;;;13.16;51.05;99948.00;5083360;28;20198;-86
2023/10/12 00:54:10;;;;;;;3.17;1.50;;;;;;;13.15;51.28;99950.72;5094783;28;20180;-86
2023/10/12 00:56:36;;;;;;;5.37;1.40;;;;;;;13.12;51.15;99949.09;5094865;28;20215;-86
2023/10/12 00:59:03;;;;;;;3.30;1.23;;;;;;;13.16;51.29;99948.00;5094735;28;20179;-86
2023/10/12 01:01:32;;;;;;;2.33;1.23;;;;;;;13.20;50.91;99949.56;5077040;28;20269;-86
2023/10/12 01:03:59;;;;;;;5.00;1.43;;;;;;;13.20;50.88;99943.44;5076248;28;20180;-86
2023/10/12 01:08:56;;;;;;;2.20;0.93;;;;;;;13.15;50.75;99945.44;5094331;28;20223;-86
2023/10/12 01:11:26;;;;;;;2.50;0.87;;;;;;;13.17;50.95;99940.94;5076566;28;20187;-86
2023/10/12 01:16:55;;;;;;;2.40;1.03;;;;;;;13.05;51.11;99944.19;5074279;28;20197;-86
2023/10/12 01:19:21;;;;;;;4.27;1.27;;;;;;;12.99;51.18;99947.09;5073291;28;20199;-86
2023/10/12 01:21:50;;;;;;;5.50;1.50;;;;;;;12.94;51.31;99949.97;5080240;28;20186;-86
2023/10/12 01:24:16;;;;;;;3.90;1.23;;;;;;;12.92;51.28;99941.28;5093798;28;20317;-86
2023/10/12 01:26:49;;;;;;;6.17;1.27;;;;;;;12.85;51.35;99948.63;5093685;28;20758;-86
2023/10/12 01:29:21;;;;;;;2.73;1.23;;;;;;;12.90;51.51;99948.41;5093887;28;20187;-86
2023/10/12 01:32:37;;;;;;;2.53;1.20;;;;;;;12.88;51.68;99942.38;5094110;28;20526;-86
2023/10/12 01:34:38;;;;;;;6.00;1.43;;;;;;;12.82;52.50;99946.16;5082753;28;20195;-86
2023/10/12 01:47:55;;;;;;;4.03;1.50;;;;;;;12.71;52.32;99940.53;5093784;28;20217;-86
2023/10/12 01:50:25;;;;;;;2.87;1.20;;;;;;;12.72;52.31;99933.50;5075697;28;20224;-86
2023/10/12 01:52:52;;;;;;;3.93;1.17;;;;;;;12.68;52.84;99930.16;5075496;28;20640;-86
2023/10/12 01:55:28;;;;;;;3.63;1.10;;;;;;;12.60;52.81;99927.09;5093375;28;20190;-86
2023/10/12 01:57:58;;;;;;;1.83;0.80;;;;;;;12.62;52.69;99932.25;5075927;28;20657;-86
2023/10/12 02:00:27;;;;;;;2.80;1.23;;;;;;;12.60;53.17;99927.09;5075725;28;20269;-86
2023/10/12 02:03:05;;;;;;;2.00;0.70;;;;;;;12.55;53.48;99918.53;5093548;28;20172;-86
2023/10/12 02:05:36;;;;;;;3.60;1.20;;;;;;;12.60;53.60;99921.81;5075432;28;20208;-86
2023/10/12 02:08:05;;;;;;;4.40;1.20;;;;;;;12.65;53.29;99917.19;5076414;28;20174;-86
2023/10/12 02:10:43;;;;;;;2.40;0.93;;;;;;;12.59;53.64;99917.47;5075305;28;20265;-86
2023/10/12 02:13:10;;;;;;;1.93;0.97;;;;;;;12.59;53.95;99919.25;5093932;28;20158;-86
2023/10/12 02:15:38;;;;;;;3.70;1.33;;;;;;;12.60;54.40;99921.81;5093386;28;20193;-86
2023/10/12 02:18:11;;;;;;;2.80;1.00;;;;;;;12.55;54.71;99915.06;5093198;28;20185;-86
2023/10/12 02:20:42;;;;;;;5.87;1.20;;;;;;;12.52;54.67;99928.38;5093461;28;20183;-86
2023/10/12 02:23:12;;;;;;;2.33;0.90;;;;;;;12.54;54.48;99924.75;5092921;28;20204;-86
2023/10/12 02:25:50;;;;;;;3.67;1.30;;;;;;;12.58;54.36;99913.13;5093366;28;20236;-87
2023/10/12 02:28:22;;;;;;;2.87;1.30;;;;;;;12.64;54.38;99912.84;5075098;28;20677;-86
2023/10/12 02:30:55;;;;;;;2.53;1.10;;;;;;;12.64;54.49;99919.88;5093435;28;20190;-86
2023/10/12 02:33:34;;;;;;;3.03;1.00;;;;;;;12.57;54.58;99921.97;5092820;28;20338;-86
2023/10/12 02:36:06;;;;;;;5.10;1.40;;;;;;;12.49;54.77;99910.97;5074999;28;20644;-86
2023/10/12 02:38:34;;;;;;;1.60;0.80;;;;;;;12.57;54.26;99911.44;5078748;28;20194;-86
2023/10/12 02:41:01;;;;;;;3.60;1.27;;;;;;;12.60;54.38;99906.03;5078973;28;20677;-86
2023/10/12 02:43:28;;;;;;;5.67;1.50;;;;;;;12.63;53.85;99907.66;5079224;28;20222;-86
2023/10/12 02:46:01;;;;;;;7.90;1.20;;;;;;;12.60;53.67;99905.19;5096993;28;20247;-86
2023/10/12 02:48:29;;;;;;;3.20;1.40;;;;;;;12.56;54.03;99901.84;5060595;28;20643;-86
2023/10/12 02:50:58;;;;;;;2.40;1.30;;;;;;;12.52;53.91;99904.69;5080322;28;20177;-86
2023/10/12 02:53:29;;;;;;;3.70;1.40;;;;;;;12.50;54.29;99904.75;5096650;28;20613;-85
2023/10/12 02:56:01;;;;;;;3.43;1.10;;;;;;;12.44;54.22;99906.84;5097254;28;20186;-86
2023/10/12 02:58:30;;;;;;;3.50;1.30;;;;;;;12.40;54.35;99911.38;5096693;28;20184;-86
2023/10/12 03:01:16;;;;;;;4.57;1.03;;;;;;;12.27;54.60;99913.75;5079611;28;20629;-86
2023/10/12 03:03:49;;;;;;;5.63;0.93;;;;;;;12.24;55.14;99918.28;5096517;28;20551;-86
2023/10/12 03:06:23;;;;;;;3.77;1.50;;;;;;;12.29;54.36;99918.91;5096688;28;20179;-86
2023/10/12 03:09:03;;;;;;;3.23;1.20;;;;;;;12.24;54.36;99923.53;5096810;28;20220;-86
2023/10/12 03:11:34;;;;;;;3.63;1.77;;;;;;;12.20;54.32;99919.38;5096435;28;20232;-86
2023/10/12 03:14:16;;;;;;;2.80;1.40;;;;;;;12.16;53.94;99912.53;5078930;28;20182;-86
2023/10/12 03:16:43;;;;;;;6.50;1.33;;;;;;;12.08;54.53;99920.78;5078347;28;20613;-86
2023/10/12 03:19:26;;;;;;;5.90;1.43;;;;;;;12.03;54.89;99917.50;5096439;28;20189;-85
2023/10/12 03:22:03;;;;;;;4.37;1.20;;;;;;;11.89;54.88;99926.97;5095881;28;20269;-86
2023/10/12 03:24:43;;;;;;;2.47;1.27;;;;;;;11.83;55.20;99929.84;5096240;28;20225;-86
2023/10/12 03:27:11;;;;;;;3.87;1.40;;;;;;;11.84;54.81;99928.94;5078426;28;20532;-86
2023/10/12 03:29:44;;;;;;;4.53;1.43;;;;;;;11.80;54.82;99928.22;5097001;28;20194;-86
2023/10/12 03:32:12;;;;;;;3.13;1.50;;;;;;;11.82;54.35;99925.53;5078258;28;20193;-86
2023/10/12 03:34:53;;;;;;;4.60;1.37;;;;;;;11.84;54.22;99923.69;5078335;28;20185;-86
2023/10/12 03:42:55;;;;;;;3.60;1.20;;;;;;;11.59;54.79;99921.25;5096167;28;20260;-86
2023/10/12 03:45:27;;;;;;;3.00;1.03;;;;;;;11.57;54.86;99920.47;5096118;28;20270;-86
2023/10/12 03:48:04;;;;;;;3.13;1.20;;;;;;;11.55;55.33;99922.31;5096030;28;20249;-86
2023/10/12 03:50:51;;;;;;;3.07;0.90;;;;;;;11.60;54.68;99923.84;5077737;28;20183;-86
2023/10/12 03:53:26;;;;;;;4.20;1.47;;;;;;;11.63;54.69;99925.47;5096280;28;20156;-86
2023/10/12 03:55:58;;;;;;;5.63;1.80;;;;;;;11.57;54.42;99920.47;5094720;28;20225;-86
2023/10/12 03:58:25;;;;;;;5.23;1.53;;;;;;;11.57;54.98;99923.09;5078068;28;20185;-86
2023/10/12 04:01:22;;;;;;;3.70;1.50;;;;;;;11.62;54.63;99924.63;5077473;28;20192;-86
2023/10/12 04:03:44;;;;;;;4.77;1.20;;;;;;;11.70;54.41;99924.31;5094868;28;20208;-86
2023/10/12 04:06:23;;;;;;;3.10;1.23;;;;;;;11.70;54.15;99919.91;5095215;28;20199;-85
2023/10/12 04:08:54;;;;;;;4.77;1.20;;;;;;;11.61;54.37;99919.41;5095311;28;20173;-85
2023/10/12 04:11:47;;;;;;;3.50;1.20;;;;;;;11.59;54.85;99916.00;5077368;28;20181;-86
2023/10/12 04:16:45;;;;;;;3.50;1.23;;;;;;;11.49;54.80;99919.97;5095292;28;20653;-85
2023/10/12 04:19:18;;;;;;;5.33;1.80;;;;;;;11.46;55.14;99922.72;5095802;28;20549;-86
2023/10/12 04:21:57;;;;;;;5.07;1.40;;;;;;;11.48;54.74;99924.34;5095181;28;20191;-86
2023/10/12 04:24:42;;;;;;;3.17;1.20;;;;;;;11.51;54.93;99929.47;5094971;28;20198;-85
2023/10/12 04:27:24;;;;;;;2.77;1.33;;;;;;;11.37;55.28;99931.84;5095130;28;20207;-85
2023/10/12 04:29:57;;;;;;;1.47;0.90;;;;;;;11.43;55.37;99930.72;5077030;28;20172;-85
2023/10/12 04:36:33;;;;;;;3.90;1.47;;;;;;;11.43;55.44;99928.09;5095068;28;20226;-85
2023/10/12 04:41:22;;;;;;;7.27;1.20;;;;;;;11.40;56.34;99929.09;5095152;28;20215;-86
2023/10/12 04:43:54;;;;;;;2.93;1.53;;;;;;;11.33;56.79;99926.78;5076599;28;20187;-85
2023/10/12 04:48:50;;;;;;;2.37;1.43;;;;;;;11.40;57.45;99923.84;5094334;28;20180;-85
2023/10/12 04:51:21;;;;;;;2.37;1.03;;;;;;;11.42;57.28;99927.28;5076705;28;20176;-85
2023/10/12 04:53:57;;;;;;;3.13;1.20;;;;;;;11.42;57.98;99927.28;5095130;28;20167;-85
2023/10/12 04:56:25;;;;;;;7.93;1.23;;;;;;;11.46;57.91;99934.06;5076594;28;20592;-86
2023/10/12 04:58:56;;;;;;;3.73;1.43;;;;;;;11.49;58.48;99931.31;5076590;28;20648;-85
2023/10/12 05:01:28;;;;;;;2.33;1.20;;;;;;;11.53;58.37;99925.00;5093872;28;20184;-85
2023/10/12 05:05:14;;;;;;;3.53;1.70;;;;;;;11.55;58.90;99930.22;5094922;28;20613;-85
2023/10/12 05:07:23;;;;;;;3.67;1.60;;;;;;;11.61;59.02;99930.78;5080644;28;20293;-85
2023/10/12 05:09:34;;;;;;;5.03;1.67;;;;;;;11.67;59.02;99935.75;5094029;28;20186;-85
2023/10/12 05:12:00;;;;;;;4.60;1.23;;;;;;;11.74;58.86;99930.28;5076369;28;20177;-85
2023/10/12 05:14:25;;;;;;;4.00;1.77;;;;;;;11.71;59.19;99929.47;5076576;28;20254;-86
2023/10/12 05:16:51;;;;;;;3.80;1.60;;;;;;;11.76;59.45;99931.91;5093891;28;20211;-85
2023/10/12 05:19:18;;;;;;;5.43;1.90;;;;;;;11.91;59.57;99922.47;5094032;28;20172;-86
2023/10/12 05:21:43;;;;;;;6.03;1.87;;;;;;;12.23;60.15;99927.13;5093852;28;20581;-85
2023/10/12 05:24:11;;;;;;;3.67;1.53;;;;;;;12.59;59.31;99925.38;5093717;28;20304;-86
2023/10/12 05:26:38;;;;;;;5.13;1.80;;;;;;;13.05;57.73;99929.22;5093831;28;20713;-86
2023/10/12 05:29:26;;;;;;;4.27;1.10;;;;;;;13.63;55.34;99927.13;5075799;28;20759;-86
2023/10/12 05:32:13;;;;;;;4.17;1.40;;;;;;;14.45;52.89;99914.75;5094139;28;20516;-86
2023/10/12 05:39:50;;;;;;;6.90;1.10;;;;;;;15.47;49.27;99925.53;5093732;28;20156;-86
2023/10/12 05:42:22;;;;;;;4.67;1.60;;;;;;;15.80;48.77;99915.59;5075449;28;20192;-86
2023/10/12 05:44:50;;;;;;;4.23;1.23;;;;;;;16.29;47.72;99919.50;5075714;28;20237;-86
2023/10/12 05:47:43;;;;;;;3.23;1.53;;;;;;;16.64;46.91;99916.44;5075697;28;20210;-86
2023/10/12 05:50:05;;;;;;;7.17;2.10;;;;;;;16.97;46.05;99924.78;5092895;28;20196;-86
2023/10/12 05:52:34;;;;;;;7.80;2.00;;;;;;;17.23;45.51;99915.97;5075898;28;20172;-86
2023/10/12 05:55:16;;;;;;;3.10;1.93;;;;;;;17.27;45.51;99922.72;5075756;28;20196;-86
2023/10/12 05:57:43;;;;;;;4.27;1.90;;;;;;;17.42;45.53;99921.72;5094006;28;20162;-87
2023/10/12 06:00:11;;;;;;;5.03;2.13;;;;;;;17.61;44.82;99924.81;5093040;28;20194;-87
2023/10/12 06:02:37;;;;;;;3.50;1.63;;;;;;;18.02;44.13;99926.41;5076077;28;20194;-86
2023/10/12 06:05:05;;;;;;;3.70;1.53;;;;;;;18.53;42.94;99916.53;5093196;28;20182;-86
2023/10/12 06:07:32;;;;;;;3.10;1.50;;;;;;;19.29;41.99;99914.34;5075600;28;20179;-86
2023/10/12 06:09:58;;;;;;;4.20;1.50;;;;;;;20.50;40.19;99907.44;5075533;28;20705;-87
2023/10/12 06:12:24;;;;;;;4.10;1.70;;;;;;;22.24;37.27;99908.59;5092317;28;20219;-86
2023/10/12 06:14:53;;;;;;;7.53;1.80;;;;;;;23.29;34.87;99900.72;5093234;28;20233;-86
2023/10/12 06:17:30;;;;;;;4.73;2.03;;;;;;;23.56;34.66;99903.50;5093160;28;20187;-85
2023/10/12 06:20:10;;;;;;;9.30;2.60;;;;;;;24.07;33.96;99903.06;5093331;28;20160;-85
2023/10/12 06:22:36;;;;;;;4.67;1.80;;;;;;;24.93;33.17;99901.75;5093260;28;20176;-85
2023/10/12 06:25:10;;;;;;;5.13;1.77;;;;;;;25.64;32.15;99907.91;5091798;28;20228;-86
2023/10/12 06:27:37;;;;;;;3.17;1.70;;;;;;;26.43;31.44;99894.22;5093199;28;20192;-86
2023/10/12 06:30:16;;;;;;;6.97;1.67;;;;;;;27.28;30.42;99896.59;5075680;28;20176;-86
2023/10/12 06:32:42;;;;;;;3.67;1.50;;;;;;;28.38;28.23;99894.84;5092930;28;20294;-87
2023/10/12 06:45:55;;;;;;;2.90;1.43;;;;;;;30.22;26.31;99893.53;5093377;28;20196;-87
2023/10/12 06:51:03;;;;;;;3.60;1.23;;;;;;;30.41;25.46;99901.09;5092916;28;20192;-87
2023/10/12 06:53:34;;;;;;;3.70;1.70;;;;;;;30.48;25.89;99906.56;5075085;28;20181;-87
2023/10/12 06:58:43;;;;;;;6.50;1.73;;;;;;;30.45;25.36;99901.56;5092825;28;20196;-88
2023/10/12 07:01:19;;;;;;;5.22;1.25;;;;;;;30.16;25.83;99899.69;5093135;28;20183;-88
2023/10/12 07:03:49;;;;;;;4.45;1.58;;;;;;;29.90;26.33;99901.19;5092686;28;20180;-89
2023/10/12 07:06:15;;;;;;;7.63;1.30;;;;;;;29.87;26.05;99893.44;5093102;28;20218;-88
2023/10/12 07:08:45;;;;;;;3.33;1.27;;;;;;;29.44;26.51;99895.88;5074935;28;20206;-89
2023/10/12 07:11:14;;;;;;;2.80;1.38;;;;;;;29.37;26.73;99900.34;5093035;28;20165;-89
2023/10/12 07:13:41;;;;;;;3.28;1.38;;;;;;;29.26;26.90;99891.81;5092729;28;20726;-89
2023/10/12 07:16:15;;;;;;;2.92;1.17;;;;;;;29.14;27.39;99894.09;5074704;28;20176;-89
2023/10/12 07:18:45;;;;;;;2.92;1.30;;;;;;;28.84;26.95;99895.81;5075244;28;20621;-89
2023/10/12 07:21:21;;;;;;;3.63;1.38;;;;;;;28.15;27.34;99891.25;5092613;28;20204;-89
2023/10/12 07:23:56;;;;;;;2.85;1.00;;;;;;;27.77;28.15;99892.00;5093714;28;20663;-88
2023/10/12 07:26:30;;;;;;;3.70;1.92;;;;;;;26.98;28.89;99895.41;5096153;28;20184;-89
2023/10/12 07:28:57;;;;;;;3.10;1.50;;;;;;;26.66;29.40;99898.00;5096743;28;20168;-89
2023/10/12 07:31:38;;;;;;;3.17;1.07;;;;;;;26.14;30.15;99897.31;5078037;28;20637;-88
2023/10/12 07:34:13;;;;;;;6.07;1.13;;;;;;;25.49;31.47;99899.59;5095791;28;20271;-87
2023/10/12 07:39:26;;;;;;;4.47;1.77;;;;;;;25.25;32.71;99896.69;5095879;28;20188;-88
2023/10/12 07:42:02;;;;;;;2.87;1.33;;;;;;;25.16;31.85;99894.91;5095827;28;20529;-88
2023/10/12 07:44:36;;;;;;;5.80;1.23;;;;;;;25.03;31.96;99900.69;5096360;28;20181;-88
2023/10/12 07:47:03;;;;;;;3.43;1.47;;;;;;;24.88;32.62;99902.22;5081326;28;20266;-89
2023/10/12 07:52:09;;;;;;;4.93;1.40;;;;;;;24.20;33.39;99895.56;5095481;28;20184;-88
2023/10/12 07:57:19;;;;;;;4.30;1.40;;;;;;;23.96;34.63;99889.84;5095991;28;20160;-88
2023/10/12 08:05:33;;;;;;;2.70;1.30;;;;;;;23.46;34.78;99885.78;5095403;28;20171;-87
2023/10/12 08:13:15;;;;;;;5.77;1.40;;;;;;;23.54;35.94;99886.75;5095274;28;20527;-88
2023/10/12 08:21:31;;;;;;;5.37;1.50;;;;;;;23.74;34.96;99872.31;5095755;28;20233;-88
2023/10/12 08:24:02;;;;;;;4.30;1.47;;;;;;;23.89;35.24;99867.34;5076817;28;20290;-88
2023/10/12 08:30:13;;;;;;;3.47;1.37;;;;;;;23.92;35.26;99872.41;5094971;28;20163;-88
2023/10/12 08:32:12;;;;;;;5.63;1.20;;;;;;;24.00;34.53;99859.13;5071579;28;20199;-89
2023/10/12 08:34:42;;;;;;;4.27;1.30;;;;;;;24.26;34.37;99856.63;5094761;28;20160;-88
2023/10/12 08:37:26;;;;;;;2.77;1.53;;;;;;;24.43;33.54;99858.47;5094301;28;20237;-88
2023/10/12 08:45:09;;;;;;;9.97;1.80;;;;;;;24.58;33.96;99856.13;5094937;28;20505;-88
2023/10/12 08:52:50;;;;;;;4.20;1.37;;;;;;;24.61;33.67;99853.13;5094899;28;20180;-88
2023/10/12 08:55:19;;;;;;;2.43;1.20;;;;;;;24.81;33.17;99844.84;5094566;28;20248;-88
2023/10/12 08:57:56;;;;;;;2.60;0.90;;;;;;;24.75;33.11;99845.41;5094604;28;20187;-89
2023/10/12 09:05:59;;;;;;;2.93;1.10;;;;;;;25.42;32.53;99830.56;5094343;28;20189;-88
2023/10/12 09:11:02;;;;;;;2.53;1.10;;;;;;;25.74;31.88;99827.22;5094415;28;20184;-88
2023/10/12 09:13:35;;;;;;;3.43;1.30;;;;;;;25.47;31.96;99823.72;5094632;28;20168;-89
2023/10/12 09:16:11;;;;;;;2.53;1.10;;;;;;;25.28;31.96;99823.91;5094040;28;20244;-89
2023/10/12 09:18:46;;;;;;;2.93;1.23;;;;;;;25.47;32.36;99812.16;5076298;28;20186;-90
2023/10/12 09:29:27;;;;;;;3.43;1.20;;;;;;;26.05;31.55;99799.66;5073636;28;20215;-89
2023/10/12 09:35:25;;;;;;;3.72;1.42;;;;;;;26.20;31.36;99786.47;5073943;28;20175;-89
2023/10/12 09:37:45;;;;;;;4.27;1.33;;;;;;;26.55;31.05;99779.97;5070225;28;20693;-88
2023/10/12 09:43:06;;;;;;;3.47;1.13;;;;;;;26.35;30.62;99773.22;5055646;28;20246;-89
2023/10/12 09:45:39;;;;;;;6.25;1.60;;;;;;;26.47;30.08;99769.19;5063145;28;20227;-89
2023/10/12 09:48:11;;;;;;;4.15;1.00;;;;;;;26.34;29.94;99768.84;5073137;28;20269;-90
2023/10/12 09:50:47;;;;;;;3.65;1.35;;;;;;;26.54;30.11;99762.16;5073608;28;20466;-89
2023/10/12 09:53:26;;;;;;;3.70;1.23;;;;;;;26.64;30.72;99754.78;5073791;28;20157;-90
2023/10/12 09:56:11;;;;;;;4.15;1.48;;;;;;;26.81;29.77;99749.25;5073674;28;20244;-89
2023/10/12 10:04:53;;;;;;;3.45;1.55;;;;;;;26.97;29.51;99739.47;5070762;28;20181;-89
2023/10/12 10:07:17;;;;;;;3.72;0.95;;;;;;;26.88;29.40;99727.91;5067282;28;20273;-90
2023/10/12 10:09:53;;;;;;;3.83;1.60;;;;;;;26.96;30.23;99722.50;5073396;28;20161;-90
2023/10/12 10:12:22;;;;;;;4.75;1.50;;;;;;;26.90;29.97;99712.41;5073069;28;20181;-89
2023/10/12 10:14:53;;;;;;;5.00;1.50;;;;;;;27.11;29.46;99717.25;5073355;28;20334;-90
2023/10/12 10:17:24;;;;;;;3.33;1.17;;;;;;;27.34;30.05;99699.34;5055790;28;20177;-89
2023/10/12 10:23:01;;;;;;;2.70;0.70;;;;;;;27.36;29.69;99695.47;5055453;28;20623;-88
2023/10/12 10:25:56;;;;;;;3.83;1.40;;;;;;;27.29;29.17;99691.81;5072851;28;20229;-90
2023/10/12 10:28:32;;;;;;;4.97;1.10;;;;;;;27.64;28.97;99687.81;5068512;28;20246;-90
2023/10/12 10:30:59;;;;;;;2.47;1.13;;;;;;;27.55;28.69;99683.47;5073097;28;20212;-91
2023/10/12 10:33:28;;;;;;;4.45;1.42;;;;;;;27.69;29.79;99671.13;5072847;28;20705;-91
2023/10/12 10:36:10;;;;;;;6.30;1.20;;;;;;;27.76;28.61;99677.47;5073297;28;20343;-91
2023/10/12 10:39:38;;;;;;;3.88;1.20;;;;;;;27.87;29.11;99674.38;5052967;28;20186;-90
2023/10/12 10:44:22;;;;;;;11.65;4.10;;;;;;;28.15;29.13;99667.47;5072997;28;20257;-90
2023/10/12 10:46:57;;;;;;;10.30;3.53;;;;;;;28.39;28.17;99656.50;5072915;28;20187;-89
2023/10/12 10:49:31;;;;;;;7.50;1.20;;;;;;;28.44;28.56;99658.66;5073320;28;20240;-90
2023/10/12 10:54:33;;;;;;;2.53;0.90;;;;;;;28.76;28.24;99649.44;5072853;28;20587;-90
2023/10/12 10:56:59;;;;;;;2.45;1.08;;;;;;;29.02;27.30;99637.19;5055041;28;20618;-90
2023/10/12 10:59:26;;;;;;;3.22;0.98;;;;;;;29.02;27.69;99637.19;5075102;28;20251;-89
2023/10/12 11:01:52;;;;;;;2.85;1.35;;;;;;;28.82;26.27;99637.94;5077178;28;20177;-89
2023/10/12 11:07:04;;;;;;;7.72;2.38;;;;;;;28.71;26.81;99624.88;5077131;28;20236;-90
2023/10/12 11:10:19;;;;;;;4.75;1.63;;;;;;;28.79;26.92;99625.66;5058761;28;20645;-90
2023/10/12 11:12:24;;;;;;;8.32;2.67;;;;;;;28.87;27.37;99622.00;5065633;28;20196;-90
2023/10/12 11:14:58;;;;;;;6.43;2.13;;;;;;;28.85;27.35;99608.69;5076271;28;20172;-90
2023/10/12 11:17:30;;;;;;;4.65;1.05;;;;;;;29.09;27.25;99610.25;5076371;28;20623;-90
2023/10/12 11:20:00;;;;;;;4.32;1.80;;;;;;;29.25;27.52;99604.69;5076538;28;20165;-90
2023/10/12 11:22:26;;;;;;;5.80;1.48;;;;;;;29.59;26.42;99601.38;5075973;28;20203;-90
2023/10/12 11:24:57;;;;;;;4.32;1.25;;;;;;;29.83;25.59;99592.94;5063081;28;20239;-90
2023/10/12 11:27:35;;;;;;;4.68;0.90;;;;;;;29.61;25.55;99589.34;5076082;28;20193;-89
2023/10/12 11:30:07;;;;;;;1.75;0.80;;;;;;;29.82;25.48;99585.88;5076179;28;20596;-90
2023/10/12 11:32:53;;;;;;;2.80;1.00;;;;;;;30.04;26.06;99589.38;5084842;28;20172;-89
2023/10/12 11:35:46;;;;;;;3.28;1.05;;;;;;;30.11;25.36;99579.47;5096900;28;20176;-90
2023/10/12 11:38:19;;;;;;;4.97;1.10;;;;;;;29.95;25.91;99585.16;5080635;28;20276;-91
2023/10/12 11:40:58;;;;;;;3.72;1.00;;;;;;;29.61;26.24;99575.81;5076249;28;20165;-90
2023/10/12 11:43:49;;;;;;;2.60;1.10;;;;;;;29.72;26.26;99580.72;5089842;28;20191;-90
2023/10/12 11:46:15;;;;;;;4.53;1.05;;;;;;;29.97;26.08;99569.56;5096214;28;20189;-90
2023/10/12 11:48:42;;;;;;;2.72;1.20;;;;;;;30.02;25.97;99565.25;5096112;28;20184;-89
2023/10/12 11:51:13;;;;;;;2.55;0.93;;;;;;;29.92;26.03;99563.91;5095912;28;20176;-90
2023/10/12 11:53:41;;;;;;;3.17;1.15;;;;;;;29.89;25.31;99565.13;5095917;28;20179;-90
2023/10/12 11:56:13;;;;;;;1.67;0.80;;;;;;;30.01;25.50;99560.03;5095778;28;20168;-91
2023/10/12 11:58:41;;;;;;;3.05;0.70;;;;;;;30.28;24.80;99553.81;5095906;28;20606;-90
2023/10/12 12:01:10;;;;;;;4.75;1.50;;;;;;;30.38;25.18;99548.94;5078141;28;20652;-90
2023/10/12 12:03:45;;;;;;;5.55;1.13;;;;;;;30.32;24.65;99547.00;5095727;28;20656;-90
2023/10/12 12:06:18;;;;;;;2.25;1.08;;;;;;;30.17;25.04;99540.81;5077542;28;20220;-90
2023/10/12 12:08:49;;;;;;;5.97;1.30;;;;;;;29.98;25.19;99546.94;5077845;28;20169;-89
2023/10/12 12:11:20;;;;;;;2.38;0.88;;;;;;;29.83;25.83;99546.97;5075543;28;20165;-91
2023/10/12 12:13:48;;;;;;;1.70;0.75;;;;;;;29.67;25.51;99549.91;5073702;28;20176;-90
2023/10/12 12:16:20;;;;;;;3.72;1.02;;;;;;;29.58;26.00;99535.72;5095720;28;20259;-89
2023/10/12 12:18:49;;;;;;;2.35;0.73;;;;;;;29.51;26.16;99534.78;5095338;28;20176;-89
2023/10/12 12:21:17;;;;;;;1.83;0.88;;;;;;;29.40;26.15;99532.59;5095145;28;20169;-90
2023/10/12 12:23:50;;;;;;;2.60;0.90;;;;;;;29.63;25.75;99521.59;5095127;28;20172;-90
2023/10/12 12:26:19;;;;;;;2.55;0.90;;;;;;;29.61;24.79;99524.47;5095292;28;20604;-90
2023/10/12 12:28:44;;;;;;;2.33;0.88;;;;;;;29.54;24.93;99511.94;5077306;28;20259;-89
2023/10/12 12:31:15;;;;;;;2.03;0.68;;;;;;;29.62;24.64;99509.97;5095194;28;20602;-90
2023/10/12 12:33:45;;;;;;;3.80;0.73;;;;;;;29.61;24.93;99519.09;5095072;28;20172;-90
2023/10/12 12:36:24;;;;;;;1.45;0.57;;;;;;;29.34;25.84;99498.25;5094096;28;20168;-90
2023/10/12 12:38:57;;;;;;;1.20;0.57;;;;;;;29.41;25.49;99496.44;5071871;28;20664;-91
2023/10/12 12:41:24;;;;;;;8.52;1.10;;;;;;;29.87;25.35;99491.50;5074789;28;20226;-90
2023/10/12 12:43:51;;;;;;;2.03;0.70;;;;;;;29.92;24.95;99485.50;5077739;28;20256;-90
2023/10/12 12:46:17;;;;;;;2.42;0.70;;;;;;;29.84;24.64;99491.91;5094655;28;20661;-90
2023/10/12 12:48:45;;;;;;;2.05;0.88;;;;;;;29.59;25.21;99486.03;5094574;28;20183;-90
2023/10/12 12:51:15;;;;;;;2.38;0.68;;;;;;;29.87;24.78;99485.28;5095131;28;20208;-90
2023/10/12 12:53:42;;;;;;;2.33;0.73;;;;;;;30.12;24.75;99478.38;5076816;28;20184;-91
2023/10/12 12:56:14;;;;;;;2.78;0.68;;;;;;;30.19;24.36;99468.47;5076996;28;20165;-90
2023/10/12 12:58:49;;;;;;;2.42;0.93;;;;;;;30.26;23.91;99467.47;5094737;28;20159;-90
2023/10/12 13:01:19;;;;;;;2.10;0.38;;;;;;;29.85;24.40;99468.41;5076767;28;20629;-90
2023/10/12 13:03:45;;;;;;;4.60;0.65;;;;;;;30.06;24.12;99462.97;5076855;28;20352;-90
2023/10/12 13:06:14;;;;;;;2.00;0.63;;;;;;;30.32;23.99;99455.84;5076568;28;20303;-90
2023/10/12 13:08:42;;;;;;;3.53;0.73;;;;;;;30.33;24.16;99456.69;5076120;28;20180;-89
2023/10/12 13:11:12;;;;;;;2.88;1.00;;;;;;;30.45;24.30;99460.53;5094547;28;20182;-90
2023/10/12 13:13:39;;;;;;;1.60;0.60;;;;;;;30.63;23.47;99460.84;5094016;28;20172;-90
2023/10/12 13:16:11;;;;;;;2.25;0.88;;;;;;;30.55;23.56;99452.88;5076389;28;20245;-90
2023/10/12 13:18:39;;;;;;;3.75;0.82;;;;;;;30.64;23.91;99440.00;5094322;28;20675;-90
2023/10/12 13:21:14;;;;;;;2.97;1.08;;;;;;;30.53;23.52;99443.31;5094221;28;20172;-91
2023/10/12 13:23:44;;;;;;;3.03;0.68;;;;;;;30.65;23.33;99444.41;5076265;28;20200;-91
2023/10/12 13:26:14;;;;;;;2.42;0.70;;;;;;;30.68;22.76;99447.53;5094110;28;20220;-90
2023/10/12 13:28:41;;;;;;;2.83;0.80;;;;;;;30.74;23.37;99438.59;5093953;28;20220;-90
2023/10/12 13:31:12;;;;;;;3.03;0.90;;;;;;;30.92;22.79;99435.38;5093047;28;20249;-90
2023/10/12 13:33:39;;;;;;;1.98;0.93;;;;;;;30.81;22.93;99438.63;5094046;28;20270;-89
2023/10/12 13:36:06;;;;;;;1.70;0.70;;;;;;;30.50;22.24;99436.44;5075995;28;20614;-90
2023/10/12 13:38:37;;;;;;;2.55;0.73;;;;;;;30.58;22.76;99432.72;5093072;28;20172;-90
2023/10/12 13:41:10;;;;;;;2.95;1.05;;;;;;;30.35;22.25;99435.66;5093777;28;20255;-90
2023/10/12 13:43:37;;;;;;;2.58;0.75;;;;;;;30.25;22.53;99436.03;5094390;28;20157;-91
2023/10/12 13:46:12;;;;;;;2.22;0.77;;;;;;;30.39;23.16;99415.34;5094014;28;20598;-90
2023/10/12 13:48:40;;;;;;;1.45;0.55;;;;;;;30.51;23.13;99419.13;5075917;28;20164;-89
2023/10/12 13:51:10;;;;;;;2.28;0.70;;;;;;;30.67;22.93;99416.09;5093949;28;20176;-90
2023/10/12 13:53:36;;;;;;;2.70;0.60;;;;;;;30.69;22.48;99416.72;5074240;28;20207;-89
2023/10/12 13:56:04;;;;;;;3.72;0.57;;;;;;;30.90;22.66;99418.44;5080002;28;20219;-89
2023/10/12 13:58:34;;;;;;;2.47;0.70;;;;;;;30.90;22.55;99419.28;5064209;28;20271;-91
2023/10/12 14:01:02;;;;;;;3.90;0.70;;;;;;;30.98;22.87;99412.88;5081178;28;21269;-90
2023/10/12 14:03:28;;;;;;;3.50;0.85;;;;;;;31.11;22.49;99410.19;5084748;28;20681;-90
2023/10/12 14:05:56;;;;;;;1.83;0.80;;;;;;;30.91;21.58;99404.75;5082143;28;20200;-90
2023/10/12 14:08:21;;;;;;;1.67;0.60;;;;;;;30.99;22.33;99409.97;5060792;28;20617;-91
2023/10/12 14:10:47;;;;;;;1.58;0.55;;;;;;;31.09;21.90;99398.75;5082985;28;20259;-89
2023/10/12 14:13:13;;;;;;;2.70;0.68;;;;;;;31.04;21.33;99406.66;5083406;28;20209;-89
2023/10/12 14:15:46;;;;;;;4.07;0.55;;;;;;;31.10;21.00;99399.59;5089554;28;20172;-91
2023/10/12 14:18:16;;;;;;;1.75;0.70;;;;;;;31.02;21.13;99408.75;5093289;28;20315;-90